Time;durP1;ratioP1;P1;durP2;ratioP2;P2;SDS_P1;SDS_P2;PMS_P1;PMS_P2;Temp;Humidity;BMP_temperature;BMP_pressure;BME280_temperature;BME280_humidity;BME280_pressure;Samples;Min_cycle;Max_cycle;Signal;HPM_P1;HPM_P2
2021/11/15 00:03:32;;;;;;;;;;;9.90;99.90;;;;;;8413766;28;19931;-72
2021/11/15 00:07:34;;;;;;;;;;;9.90;99.90;;;;;;8415012;28;19924;-71
2021/11/15 00:11:36;;;;;;;;;;;9.90;99.90;;;;;;8431187;28;20522;-71
2021/11/15 00:15:38;;;;;;;;;;;9.90;99.90;;;;;;8418626;28;19920;-72
2021/11/15 00:19:39;;;;;;;;;;;9.90;99.90;;;;;;8424420;28;19920;-72
2021/11/15 00:23:41;;;;;;;;;;;9.90;99.90;;;;;;8422953;28;20318;-71
2021/11/15 00:27:43;;;;;;;;;;;9.90;99.90;;;;;;8416797;28;19927;-72
2021/11/15 00:31:44;;;;;;;;;;;9.80;99.90;;;;;;8423718;28;19920;-72
2021/11/15 00:35:46;;;;;;;;;;;9.80;99.90;;;;;;8416108;28;19974;-71
2021/11/15 00:39:48;;;;;;;;;;;9.80;99.90;;;;;;8417331;28;19920;-72
2021/11/15 00:43:50;;;;;;;;;;;9.80;99.90;;;;;;8417365;28;19920;-71
2021/11/15 00:47:52;;;;;;;;;;;9.80;99.90;;;;;;8451821;27;19973;-71
2021/11/15 00:51:53;;;;;;;;;;;9.80;99.90;;;;;;8421086;28;19927;-71
2021/11/15 00:55:56;;;;;;;;;;;9.70;99.90;;;;;;8418768;28;19924;-71
2021/11/15 00:59:58;;;;;;;;;;;9.70;99.90;;;;;;8408719;28;19920;-72
2021/11/15 01:03:59;;;;;;;;;;;9.70;99.90;;;;;;8417600;28;20388;-72
2021/11/15 01:08:01;;;;;;;;;;;9.70;99.90;;;;;;8412179;28;19928;-72
2021/11/15 01:12:03;;;;;;;;;;;9.70;99.90;;;;;;8418640;28;19919;-72
2021/11/15 01:16:07;;;;;;;;;;;9.70;99.90;;;;;;8417347;28;19920;-72
2021/11/15 01:20:11;;;;;;;;;;;9.60;99.90;;;;;;8416127;28;20352;-71
2021/11/15 01:24:12;;;;;;;;;;;9.60;99.90;;;;;;8416093;28;19920;-72
2021/11/15 01:28:14;;;;;;;;;;;9.60;99.90;;;;;;8411988;28;19992;-72
2021/11/15 01:32:16;;;;;;;;;;;9.60;99.90;;;;;;8417945;28;19924;-72
2021/11/15 01:36:17;;;;;;;;;;;9.60;99.90;;;;;;8421286;28;19930;-71
2021/11/15 01:40:21;;;;;;;;;;;9.60;99.90;;;;;;8411420;28;19931;-72
2021/11/15 01:44:24;;;;;;;;;;;9.60;99.90;;;;;;8420051;28;19924;-72
2021/11/15 01:48:26;;;;;;;;;;;9.60;99.90;;;;;;8417348;28;19973;-72
2021/11/15 01:52:28;;;;;;;;;;;9.50;99.90;;;;;;8426611;28;19927;-72
2021/11/15 01:56:30;;;;;;;;;;;9.50;99.90;;;;;;8415809;28;20420;-72
2021/11/15 02:00:34;;;;;;;;;;;9.50;99.90;;;;;;8413385;28;19924;-72
2021/11/15 02:04:35;;;;;;;;;;;9.50;99.90;;;;;;8417531;28;19923;-72
2021/11/15 02:08:38;;;;;;;;;;;9.50;99.90;;;;;;8413057;28;19935;-72
2021/11/15 02:12:40;;;;;;;;;;;9.40;99.90;;;;;;8417115;28;19973;-72
2021/11/15 02:16:42;;;;;;;;;;;9.40;99.90;;;;;;8417655;28;20264;-71
2021/11/15 02:20:45;;;;;;;;;;;9.40;99.90;;;;;;8417964;28;19930;-71
2021/11/15 02:24:47;;;;;;;;;;;9.40;99.90;;;;;;8414105;28;19928;-71
2021/11/15 02:28:50;;;;;;;;;;;9.40;99.90;;;;;;8422255;28;19920;-72
2021/11/15 02:32:52;;;;;;;;;;;9.40;99.90;;;;;;8429481;28;19920;-72
2021/11/15 02:36:54;;;;;;;;;;;9.40;99.90;;;;;;8421653;28;20239;-71
2021/11/15 02:40:56;;;;;;;;;;;9.40;99.90;;;;;;8424264;28;20314;-72
2021/11/15 02:44:57;;;;;;;;;;;9.40;99.90;;;;;;8426013;28;20356;-71
2021/11/15 02:48:59;;;;;;;;;;;9.30;99.90;;;;;;8419578;28;20268;-72
2021/11/15 02:53:03;;;;;;;;;;;9.40;99.90;;;;;;8423635;28;19920;-72
2021/11/15 02:57:06;;;;;;;;;;;9.40;99.90;;;;;;8414278;28;19939;-72
2021/11/15 03:01:12;;;;;;;;;;;9.30;99.90;;;;;;8417471;28;19924;-71
2021/11/15 03:05:14;;;;;;;;;;;9.40;99.90;;;;;;8424302;28;20402;-71
2021/11/15 03:09:16;;;;;;;;;;;9.30;99.90;;;;;;8420341;28;19974;-71
2021/11/15 03:13:18;;;;;;;;;;;9.30;99.90;;;;;;8426294;28;19931;-72
2021/11/15 03:17:20;;;;;;;;;;;9.30;99.90;;;;;;8415931;28;20311;-71
2021/11/15 03:21:23;;;;;;;;;;;9.30;99.90;;;;;;8416349;28;19920;-71
2021/11/15 03:25:26;;;;;;;;;;;9.30;99.90;;;;;;8418446;28;20041;-72
2021/11/15 03:29:27;;;;;;;;;;;9.30;99.90;;;;;;8425422;28;20320;-71
2021/11/15 03:33:30;;;;;;;;;;;9.40;99.90;;;;;;8421812;28;20372;-72
2021/11/15 03:37:32;;;;;;;;;;;9.30;99.90;;;;;;8418794;28;19927;-72
2021/11/15 03:41:34;;;;;;;;;;;9.30;99.90;;;;;;8417190;28;19920;-72
2021/11/15 03:45:37;;;;;;;;;;;9.30;99.90;;;;;;8425890;28;19942;-72
2021/11/15 03:49:38;;;;;;;;;;;9.20;99.90;;;;;;8428456;28;19931;-72
2021/11/15 03:53:41;;;;;;;;;;;9.20;99.90;;;;;;8417305;28;20464;-73
2021/11/15 03:57:43;;;;;;;;;;;9.20;99.90;;;;;;8414118;28;19920;-72
2021/11/15 04:01:45;;;;;;;;;;;9.20;99.90;;;;;;8415490;28;19920;-72
2021/11/15 04:05:53;;;;;;;;;;;9.20;99.90;;;;;;8418505;28;19957;-72
2021/11/15 04:09:56;;;;;;;;;;;9.20;99.90;;;;;;8419162;28;19927;-71
2021/11/15 04:14:00;;;;;;;;;;;9.20;99.90;;;;;;8419358;28;19924;-71
2021/11/15 04:18:03;;;;;;;;;;;9.20;99.90;;;;;;8424949;28;19920;-72
2021/11/15 04:22:04;;;;;;;;;;;9.20;99.90;;;;;;8416392;28;19927;-72
2021/11/15 04:26:08;;;;;;;;;;;9.20;99.90;;;;;;8428957;28;19921;-71
2021/11/15 04:30:12;;;;;;;;;;;9.20;99.90;;;;;;8421922;28;19920;-71
2021/11/15 04:34:13;;;;;;;16.35;8.25;;;9.10;99.90;;;;;;8415130;28;20264;-72
2021/11/15 04:38:15;;;;;;;16.73;7.88;;;9.10;99.90;;;;;;8410728;28;20193;-72
2021/11/15 04:42:17;;;;;;;14.82;8.20;;;9.10;99.90;;;;;;8415188;28;20052;-72
2021/11/15 04:46:18;;;;;;;16.83;8.40;;;9.10;99.90;;;;;;8417138;28;20123;-72
2021/11/15 04:50:20;;;;;;;17.95;9.40;;;9.10;99.90;;;;;;8419811;28;20514;-72
2021/11/15 04:54:22;;;;;;;17.92;9.13;;;9.00;99.90;;;;;;8418663;28;20044;-72
2021/11/15 04:58:24;;;;;;;17.63;9.35;;;9.00;99.90;;;;;;8413026;28;20044;-72
2021/11/15 05:02:27;;;;;;;17.70;9.00;;;9.00;99.90;;;;;;8408544;28;20056;-72
2021/11/15 05:06:29;;;;;;;18.65;9.15;;;9.00;99.90;;;;;;8416782;28;20228;-72
2021/11/15 05:10:31;;;;;;;19.63;10.27;;;9.10;99.90;;;;;;8415084;28;20452;-72
2021/11/15 05:14:33;;;;;;;21.67;9.85;;;9.00;99.90;;;;;;8422315;28;20047;-72
2021/11/15 05:18:35;;;;;;;19.48;8.95;;;9.10;99.90;;;;;;8416433;28;20043;-72
2021/11/15 05:22:37;;;;;;;18.45;8.95;;;9.10;99.90;;;;;;8416067;28;20048;-72
2021/11/15 05:26:39;;;;;;;18.60;9.30;;;9.10;99.90;;;;;;8423292;28;20051;-73
2021/11/15 05:30:41;;;;;;;18.60;10.07;;;9.10;99.90;;;;;;8428199;28;20055;-73
2021/11/15 05:34:43;;;;;;;20.17;9.68;;;9.00;99.90;;;;;;8419068;28;20056;-73
2021/11/15 05:38:45;;;;;;;20.08;9.80;;;9.00;99.90;;;;;;8416509;28;20562;-73
2021/11/15 05:42:47;;;;;;;20.55;10.45;;;9.00;99.90;;;;;;8413726;28;20044;-72
2021/11/15 05:46:49;;;;;;;19.15;9.27;;;9.00;99.90;;;;;;8416993;28;20075;-73
2021/11/15 05:50:51;;;;;;;21.17;9.50;;;9.00;99.90;;;;;;8423945;28;20077;-73
2021/11/15 05:54:52;;;;;;;;;;;8.90;99.90;;;;;;8415440;28;19927;-72
2021/11/15 05:58:54;;;;;;;;;;;8.90;99.90;;;;;;8424216;28;19927;-73
2021/11/15 06:02:56;;;;;;;;;;;8.90;99.90;;;;;;8420138;28;19924;-72
2021/11/15 06:06:58;;;;;;;;;;;9.00;99.90;;;;;;8417967;28;20309;-72
2021/11/15 06:11:00;;;;;;;;;;;9.00;99.90;;;;;;8424948;28;19931;-72
2021/11/15 06:15:01;;;;;;;;;;;9.00;99.90;;;;;;8423367;28;19920;-73
2021/11/15 06:19:03;;;;;;;;;;;8.90;99.90;;;;;;8415693;28;20391;-73
2021/11/15 06:23:05;;;;;;;;;;;8.90;99.90;;;;;;8417832;28;19924;-72
2021/11/15 06:27:07;;;;;;;;;;;8.90;99.90;;;;;;8417754;28;20304;-73
2021/11/15 06:31:11;;;;;;;;;;;8.90;99.90;;;;;;8418554;28;20288;-72
2021/11/15 06:35:13;;;;;;;;;;;8.90;99.90;;;;;;8416945;28;20008;-72
2021/11/15 06:39:15;;;;;;;;;;;8.80;99.90;;;;;;8421011;28;19928;-73
2021/11/15 06:43:17;;;;;;;;;;;8.80;99.90;;;;;;8415172;28;19923;-72
2021/11/15 06:47:19;;;;;;;;;;;8.80;99.90;;;;;;8423506;28;20338;-72
2021/11/15 06:51:20;;;;;;;;;;;8.80;99.90;;;;;;8420024;28;19920;-72
2021/11/15 06:55:22;;;;;;;;;;;8.80;99.90;;;;;;8419609;28;19927;-72
2021/11/15 06:59:24;;;;;;;;;;;8.90;99.90;;;;;;8408389;28;20239;-72
2021/11/15 07:03:26;;;;;;;;;;;8.90;99.90;;;;;;8417406;28;19924;-72
2021/11/15 07:07:28;;;;;;;;;;;8.90;99.90;;;;;;8419372;28;19970;-72
2021/11/15 07:11:30;;;;;;;;;;;8.90;99.90;;;;;;8421926;28;19923;-72
2021/11/15 07:15:32;;;;;;;;;;;8.90;99.90;;;;;;8421991;28;19936;-73
2021/11/15 07:19:33;;;;;;;;;;;8.90;99.90;;;;;;8424707;28;19946;-72
2021/11/15 07:23:35;;;;;;;;;;;8.90;99.90;;;;;;8429695;28;20291;-72
2021/11/15 07:27:37;;;;;;;;;;;8.90;99.90;;;;;;8425135;28;20276;-72
2021/11/15 07:31:39;;;;;;;;;;;8.90;99.90;;;;;;8423184;28;19946;-72
2021/11/15 07:35:41;;;;;;;;;;;8.90;99.90;;;;;;8425860;28;19920;-72
2021/11/15 07:39:43;;;;;;;;;;;8.90;99.90;;;;;;8425723;28;19920;-72
2021/11/15 07:43:45;;;;;;;;;;;8.90;99.90;;;;;;8420928;28;19931;-73
2021/11/15 07:47:47;;;;;;;;;;;8.90;99.90;;;;;;8424197;28;19935;-73
2021/11/15 07:51:49;;;;;;;;;;;8.90;99.90;;;;;;8423396;28;19927;-72
2021/11/15 07:55:50;;;;;;;;;;;8.80;99.90;;;;;;8403433;28;20342;-72
2021/11/15 07:59:53;;;;;;;;;;;8.80;99.90;;;;;;8392282;28;19925;-72
2021/11/15 08:03:54;;;;;;;;;;;8.80;99.90;;;;;;8392520;28;19921;-72
2021/11/15 08:07:56;;;;;;;;;;;8.90;99.90;;;;;;8387737;28;19928;-72
2021/11/15 08:12:03;;;;;;;;;;;8.90;99.90;;;;;;8389473;28;20594;-72
2021/11/15 08:16:05;;;;;;;;;;;8.90;99.90;;;;;;8388430;28;19927;-72
2021/11/15 08:20:10;;;;;;;;;;;8.90;99.90;;;;;;8390575;28;19927;-72
2021/11/15 08:24:18;;;;;;;;;;;8.90;99.90;;;;;;8388335;28;20470;-71
2021/11/15 08:28:20;;;;;;;;;;;8.80;99.90;;;;;;8390625;28;19939;-73
2021/11/15 08:32:24;;;;;;;;;;;8.80;99.90;;;;;;8393549;28;20375;-72
2021/11/15 08:36:27;;;;;;;;;;;8.80;99.90;;;;;;8393057;28;19982;-72
2021/11/15 08:40:28;;;;;;;;;;;8.70;99.90;;;;;;8391660;28;19925;-72
2021/11/15 08:44:32;;;;;;;;;;;8.70;99.90;;;;;;8390762;28;19924;-72
2021/11/15 08:48:35;;;;;;;;;;;8.70;99.90;;;;;;8390933;28;19920;-72
2021/11/15 08:52:37;;;;;;;;;;;8.70;99.90;;;;;;8390564;28;19943;-72
2021/11/15 08:56:38;;;;;;;;;;;8.70;99.90;;;;;;8392731;28;20004;-72
2021/11/15 09:01:00;;;;;;;;;;;8.70;99.90;;;;;;8395144;28;20414;-72
2021/11/15 09:05:02;;;;;;;;;;;8.70;99.90;;;;;;8390139;28;20015;-73
2021/11/15 09:09:05;;;;;;;;;;;8.70;99.90;;;;;;8389202;28;20364;-72
2021/11/15 09:13:10;;;;;;;;;;;8.70;99.90;;;;;;8389797;28;19932;-73
2021/11/15 09:17:12;;;;;;;;;;;8.70;99.90;;;;;;8385456;28;19924;-73
2021/11/15 09:21:15;;;;;;;;;;;8.70;99.90;;;;;;8388056;28;19932;-72
2021/11/15 09:25:16;;;;;;;;;;;8.70;99.90;;;;;;8389043;28;20011;-72
2021/11/15 09:29:18;;;;;;;;;;;8.70;99.90;;;;;;8388359;28;19982;-72
2021/11/15 09:33:20;;;;;;;;;;;8.70;99.90;;;;;;8389420;28;19974;-72
2021/11/15 09:37:22;;;;;;;;;;;8.70;99.90;;;;;;8388240;28;19945;-72
2021/11/15 09:41:25;;;;;;;;;;;8.60;99.90;;;;;;8387005;28;19926;-72
2021/11/15 09:45:27;;;;;;;;;;;8.60;99.90;;;;;;8388926;28;19924;-73
2021/11/15 09:49:28;;;;;;;;;;;8.60;99.90;;;;;;8391341;28;19924;-72
2021/11/15 09:53:30;;;;;;;;;;;8.60;99.90;;;;;;8388849;28;19932;-72
2021/11/15 09:57:40;;;;;;;;;;;8.60;99.90;;;;;;8385864;28;19919;-72
2021/11/15 10:01:42;;;;;;;;;;;8.60;99.90;;;;;;8389063;28;19920;-72
2021/11/15 10:05:45;;;;;;;;;;;8.50;99.90;;;;;;8388699;28;19924;-72
2021/11/15 10:09:49;;;;;;;;;;;8.50;99.90;;;;;;8388310;28;20257;-72
2021/11/15 10:13:52;;;;;;;;;;;8.50;99.90;;;;;;8386982;28;19931;-72
2021/11/15 10:17:57;;;;;;;;;;;8.60;99.90;;;;;;8388556;28;20399;-72
2021/11/15 10:22:09;;;;;;;;;;;8.60;99.90;;;;;;8390477;28;19928;-72
2021/11/15 10:26:27;;;;;;;;;;;8.60;99.90;;;;;;8396234;28;19924;-73
2021/11/15 10:30:33;;;;;;;;;;;8.50;99.90;;;;;;8399938;28;20014;-72
2021/11/15 10:34:37;;;;;;;;;;;8.50;99.90;;;;;;8387549;28;19920;-73
2021/11/15 10:38:39;;;;;;;;;;;8.50;99.90;;;;;;8388348;28;24407;-72
2021/11/15 10:42:43;;;;;;;;;;;8.40;99.90;;;;;;8391656;28;19953;-72
2021/11/15 10:46:45;;;;;;;;;;;8.40;99.90;;;;;;8398938;28;19924;-72
2021/11/15 10:50:52;;;;;;;;;;;8.40;99.90;;;;;;8394857;28;20335;-72
2021/11/15 10:55:01;;;;;;;;;;;8.40;99.90;;;;;;8395398;28;19920;-72
2021/11/15 10:59:12;;;;;;;;;;;8.40;99.90;;;;;;8394047;28;19924;-72
2021/11/15 11:03:19;;;;;;;;;;;8.40;99.90;;;;;;8395132;28;19961;-72
2021/11/15 11:07:21;;;;;;;;;;;8.40;99.90;;;;;;8404033;28;19928;-72
2021/11/15 11:11:27;;;;;;;;;;;8.40;99.90;;;;;;8399327;28;19924;-72
2021/11/15 11:15:36;;;;;;;;;;;8.40;99.90;;;;;;8395545;28;19920;-72
2021/11/15 11:20:03;;;;;;;;;;;8.40;99.90;;;;;;8391677;28;19966;-73
2021/11/15 11:28:29;;;;;;;;;;;8.30;99.90;;;;;;8395377;28;19972;-72
2021/11/15 11:32:30;;;;;;;;;;;8.30;99.90;;;;;;8394872;28;20399;-72
2021/11/15 11:36:32;;;;;;;;;;;8.30;99.90;;;;;;8391639;28;19924;-72
2021/11/15 11:40:34;;;;;;;;;;;8.30;99.90;;;;;;8393675;28;19920;-72
2021/11/15 11:44:35;;;;;;;;;;;8.30;99.90;;;;;;8394533;28;19931;-72
2021/11/15 11:48:38;;;;;;;;;;;8.30;99.90;;;;;;8392978;28;19920;-72
2021/11/15 11:52:40;;;;;;;;;;;8.30;99.90;;;;;;8391476;28;19928;-72
2021/11/15 11:56:57;;;;;;;;;;;8.30;99.90;;;;;;8387982;28;19924;-72
2021/11/15 12:01:01;;;;;;;;;;;8.20;99.90;;;;;;8392414;28;20375;-72
2021/11/15 12:05:29;;;;;;;;;;;8.20;99.90;;;;;;8394922;28;20427;-73
2021/11/15 12:09:44;;;;;;;;;;;8.30;99.90;;;;;;8394950;28;19924;-72
2021/11/15 12:13:46;;;;;;;;;;;8.30;99.90;;;;;;8395696;28;20023;-73
2021/11/15 12:17:48;;;;;;;;;;;8.30;99.90;;;;;;8400404;28;20422;-72
2021/11/15 12:22:04;;;;;;;;;;;8.30;99.90;;;;;;8425710;27;20328;-72
2021/11/15 12:26:07;;;;;;;;;;;8.30;99.90;;;;;;8392056;28;19935;-72
2021/11/15 12:30:18;;;;;;;;;;;8.30;99.90;;;;;;8393534;28;19935;-72
2021/11/15 12:34:22;;;;;;;;;;;8.30;99.90;;;;;;8404325;28;19924;-72
2021/11/15 12:38:30;;;;;;;;;;;8.40;99.90;;;;;;8391171;28;19928;-72
2021/11/15 12:42:31;;;;;;;;;;;8.40;99.90;;;;;;8391810;28;19931;-72
2021/11/15 12:46:49;;;;;;;;;;;8.40;99.90;;;;;;8391229;28;20325;-72
2021/11/15 12:50:52;;;;;;;;;;;8.30;99.90;;;;;;8391896;28;19920;-73
2021/11/15 12:54:55;;;;;;;;;;;8.30;99.90;;;;;;8391577;28;19920;-73
2021/11/15 12:58:57;;;;;;;;;;;8.30;99.90;;;;;;8388293;28;19931;-73
2021/11/15 13:03:00;;;;;;;;;;;8.30;99.90;;;;;;8389459;28;19927;-72
2021/11/15 13:07:03;;;;;;;;;;;8.30;99.90;;;;;;8400935;28;19928;-73
2021/11/15 13:11:06;;;;;;;;;;;8.30;99.90;;;;;;8391630;28;19981;-72
2021/11/15 13:15:08;;;;;;;;;;;8.20;99.90;;;;;;8390943;28;19982;-72
2021/11/15 13:19:11;;;;;;;;;;;8.20;99.90;;;;;;8389245;28;20284;-72
2021/11/15 13:23:13;;;;;;;;;;;8.20;99.90;;;;;;8387543;28;19935;-72
2021/11/15 13:27:17;;;;;;;;;;;8.20;99.90;;;;;;8387416;28;20236;-72
2021/11/15 13:31:19;;;;;;;;;;;8.20;99.90;;;;;;8386520;28;19927;-73
2021/11/15 13:35:21;;;;;;;;;;;8.10;99.90;;;;;;8387820;28;19920;-72
2021/11/15 13:39:24;;;;;;;;;;;8.10;99.90;;;;;;8390014;28;19955;-72
2021/11/15 13:43:27;;;;;;;;;;;8.10;99.90;;;;;;8381672;28;19928;-72
2021/11/15 13:47:29;;;;;;;;;;;8.00;99.90;;;;;;8389274;28;20336;-72
2021/11/15 13:51:31;;;;;;;;;;;8.00;99.90;;;;;;8393789;28;19935;-72
2021/11/15 13:55:32;;;;;;;;;;;7.90;99.90;;;;;;8388726;28;19935;-72
2021/11/15 13:59:34;;;;;;;;;;;7.90;99.90;;;;;;8389092;28;20129;-72
2021/11/15 14:03:37;;;;;;;;;;;7.80;99.90;;;;;;8383946;28;20004;-72
2021/11/15 14:07:39;;;;;;;;;;;7.80;99.90;;;;;;8388417;28;19927;-72
2021/11/15 14:11:40;;;;;;;;;;;7.80;99.90;;;;;;8392559;28;20059;-72
2021/11/15 14:15:42;;;;;;;;;;;7.90;99.90;;;;;;8422530;28;19932;-72
2021/11/15 14:19:44;;;;;;;;;;;7.80;99.90;;;;;;8427282;27;19931;-72
2021/11/15 14:23:47;;;;;;;;;;;7.80;99.90;;;;;;8406517;28;20600;-72
2021/11/15 14:27:48;;;;;;;;;;;7.80;99.90;;;;;;8395161;28;19928;-72
2021/11/15 14:31:50;;;;;;;;;;;7.80;99.90;;;;;;8394344;28;20367;-72
2021/11/15 14:35:54;;;;;;;;;;;7.90;99.90;;;;;;8400390;28;19928;-73
2021/11/15 14:39:57;;;;;;;;;;;7.90;99.90;;;;;;8410675;28;19920;-72
2021/11/15 14:43:58;;;;;;;;;;;7.90;99.90;;;;;;8393631;28;19924;-73
2021/11/15 14:48:01;;;;;;;;;;;7.90;99.90;;;;;;8392614;28;19924;-72
2021/11/15 14:52:03;;;;;;;;;;;7.90;99.90;;;;;;8401043;28;20417;-72
2021/11/15 14:56:05;;;;;;;;;;;7.90;99.90;;;;;;8425562;27;20125;-72
2021/11/15 15:00:08;;;;;;;;;;;7.80;99.90;;;;;;8391337;28;19935;-72
2021/11/15 15:04:10;;;;;;;;;;;7.90;99.90;;;;;;8394438;28;19926;-72
2021/11/15 15:08:12;;;;;;;;;;;7.90;99.90;;;;;;8394772;28;19946;-72
2021/11/15 15:12:15;;;;;;;;;;;7.90;99.90;;;;;;8397925;28;19928;-72
2021/11/15 15:16:20;;;;;;;;;;;7.90;99.90;;;;;;8395372;28;19934;-72
2021/11/15 15:20:23;;;;;;;;;;;7.90;99.90;;;;;;8392247;28;19924;-72
2021/11/15 15:24:26;;;;;;;;;;;7.90;99.90;;;;;;8403336;28;19928;-72
2021/11/15 15:28:27;;;;;;;;;;;7.90;99.90;;;;;;8422493;27;19943;-72
2021/11/15 15:32:29;;;;;;;;;;;7.90;99.90;;;;;;8390312;28;20356;-72
2021/11/15 15:36:31;;;;;;;;;;;7.90;99.90;;;;;;8390613;28;19924;-72
2021/11/15 15:40:39;;;;;;;;;;;7.90;99.90;;;;;;8391077;28;19939;-72
2021/11/15 15:44:41;;;;;;;;;;;7.90;99.90;;;;;;8389530;28;20283;-72
2021/11/15 15:48:44;;;;;;;;;;;7.80;99.90;;;;;;8421971;27;19924;-72
2021/11/15 15:52:46;;;;;;;;;;;7.80;99.90;;;;;;8389571;28;19930;-72
2021/11/15 15:56:49;;;;;;;;;;;7.80;99.90;;;;;;8389118;28;19924;-72
2021/11/15 16:00:52;;;;;;;;;;;7.80;99.90;;;;;;8391830;28;19932;-72
2021/11/15 16:10:07;;;;;;;;;;;7.70;99.90;;;;;;8389775;28;20372;-73
2021/11/15 16:14:07;;;;;;;;;;;7.70;99.90;;;;;;8383072;28;19927;-72
2021/11/15 16:18:09;;;;;;;;;;;7.70;99.90;;;;;;8390653;28;19927;-72
2021/11/15 16:22:10;;;;;;;;;;;7.70;99.90;;;;;;8389848;28;19966;-72
2021/11/15 16:26:12;;;;;;;;;;;7.70;99.90;;;;;;8391413;28;19924;-72
2021/11/15 16:30:14;;;;;;;;;;;7.70;99.90;;;;;;8406171;28;20441;-72
2021/11/15 16:34:16;;;;;;;;;;;7.60;99.90;;;;;;8389339;28;20003;-72
2021/11/15 16:38:19;;;;;;;;;;;7.60;99.90;;;;;;8389021;28;20394;-72
2021/11/15 16:42:21;;;;;;;;;;;7.60;99.90;;;;;;8390015;28;19990;-72
2021/11/15 16:46:22;;;;;;;;;;;7.60;99.90;;;;;;8391629;28;19924;-72
2021/11/15 16:50:26;;;;;;;;;;;7.50;99.90;;;;;;8390152;28;20252;-72
2021/11/15 16:54:29;;;;;;;;;;;7.50;99.90;;;;;;8391092;28;20382;-72
2021/11/15 16:58:31;;;;;;;;;;;7.50;99.90;;;;;;8401260;28;19943;-73
2021/11/15 17:02:33;;;;;;;;;;;7.50;99.90;;;;;;8390962;28;19935;-72
2021/11/15 17:06:35;;;;;;;;;;;7.50;99.90;;;;;;8387290;28;20428;-72
2021/11/15 17:10:42;;;;;;;;;;;7.50;99.90;;;;;;8387472;28;19920;-71
2021/11/15 17:14:45;;;;;;;;;;;7.50;99.90;;;;;;8389509;28;21219;-72
2021/11/15 17:18:50;;;;;;;;;;;7.50;99.90;;;;;;8388902;28;19932;-72
2021/11/15 17:22:52;;;;;;;;;;;7.50;99.90;;;;;;8387910;28;19924;-72
2021/11/15 17:26:54;;;;;;;;;;;7.40;99.90;;;;;;8388893;28;19924;-72
2021/11/15 17:30:56;;;;;;;;;;;7.40;99.90;;;;;;8389123;28;19928;-72
2021/11/15 17:34:58;;;;;;;;;;;7.40;99.90;;;;;;8394591;28;20372;-72
2021/11/15 17:39:00;;;;;;;;;;;7.50;99.90;;;;;;8403404;28;19921;-72
2021/11/15 17:43:02;;;;;;;;;;;7.50;99.90;;;;;;8385289;28;19924;-72
2021/11/15 17:47:05;;;;;;;;;;;7.50;99.90;;;;;;8392093;28;19935;-73
2021/11/15 17:51:21;;;;;;;;;;;7.50;99.90;;;;;;8388923;28;19929;-72
2021/11/15 17:59:29;;;;;;;;;;;7.50;99.90;;;;;;8387182;28;20739;-72
2021/11/15 18:03:31;;;;;;;;;;;7.40;99.90;;;;;;8402490;28;20272;-72
2021/11/15 18:07:35;;;;;;;;;;;7.40;99.90;;;;;;8403823;28;19973;-72
2021/11/15 18:11:38;;;;;;;;;;;7.40;99.90;;;;;;8388523;28;19939;-72
2021/11/15 18:15:41;;;;;;;;;;;7.40;99.90;;;;;;8387182;28;19928;-72
2021/11/15 18:19:43;;;;;;;;;;;7.40;99.90;;;;;;8386524;28;19981;-72
2021/11/15 18:23:45;;;;;;;;;;;7.40;99.90;;;;;;8384309;28;19928;-72
2021/11/15 18:27:47;;;;;;;;;;;7.40;99.90;;;;;;8407758;28;19928;-72
2021/11/15 18:31:51;;;;;;;;;;;7.40;99.90;;;;;;8390064;28;19920;-72
2021/11/15 18:35:54;;;;;;;;;;;7.40;99.90;;;;;;8400389;28;19985;-72
2021/11/15 18:39:56;;;;;;;;;;;7.40;99.90;;;;;;8382186;28;19925;-72
2021/11/15 18:43:58;;;;;;;;;;;7.40;99.90;;;;;;8382077;28;19920;-72
2021/11/15 18:48:00;;;;;;;;;;;7.40;99.90;;;;;;8389176;28;19931;-72
2021/11/15 18:52:05;;;;;;;;;;;7.30;99.90;;;;;;8386653;28;19920;-72
2021/11/15 18:56:07;;;;;;;;;;;7.20;99.90;;;;;;8387527;28;19920;-72
2021/11/15 19:00:28;;;;;;;;;;;7.20;99.90;;;;;;8388803;28;19935;-72
2021/11/15 19:04:33;;;;;;;;;;;7.30;99.90;;;;;;8410951;28;19974;-72
2021/11/15 19:08:49;;;;;;;;;;;7.30;99.90;;;;;;8393858;28;20402;-72
2021/11/15 19:12:53;;;;;;;;;;;7.30;99.90;;;;;;8395781;28;19924;-72
2021/11/15 19:16:55;;;;;;;;;;;7.30;99.90;;;;;;8394398;28;20368;-72
2021/11/15 19:20:57;;;;;;;;;;;7.30;99.90;;;;;;8391891;28;20391;-72
2021/11/15 19:24:59;;;;;;;;;;;7.30;99.90;;;;;;8392616;28;20320;-72
2021/11/15 19:29:04;;;;;;;;;;;7.30;99.90;;;;;;8392859;28;19920;-72
2021/11/15 19:33:07;;;;;;;;;;;7.20;99.90;;;;;;8389235;28;19950;-72
2021/11/15 19:37:09;;;;;;;;;;;7.20;99.90;;;;;;8398554;28;19924;-74
2021/11/15 19:41:12;;;;;;;;;;;7.20;99.90;;;;;;8401123;28;19924;-72
2021/11/15 19:45:15;;;;;;;;;;;7.20;99.90;;;;;;8393607;28;19932;-72
2021/11/15 19:49:19;;;;;;;;;;;7.20;99.90;;;;;;8393686;28;19920;-72
2021/11/15 19:53:21;;;;;;;;;;;7.20;99.90;;;;;;8395458;28;19924;-72
2021/11/15 19:57:22;;;;;;;;;;;7.20;99.90;;;;;;8392935;28;19920;-72
2021/11/15 20:01:24;;;;;;;;;;;7.20;99.90;;;;;;8392866;28;19920;-72
2021/11/15 20:05:29;;;;;;;;;;;7.10;99.90;;;;;;8390906;28;20268;-72
2021/11/15 20:09:46;;;;;;;;;;;7.10;99.90;;;;;;8392770;28;20022;-72
2021/11/15 20:13:48;;;;;;;;;;;7.10;99.90;;;;;;8393714;28;20003;-72
2021/11/15 20:17:49;;;;;;;;;;;7.10;99.90;;;;;;8392253;28;19935;-72
2021/11/15 20:21:51;;;;;;;;;;;7.10;99.90;;;;;;8390307;28;19920;-72
2021/11/15 20:25:53;;;;;;;;;;;7.00;99.90;;;;;;8388738;28;19924;-72
2021/11/15 20:29:55;;;;;;;;;;;7.00;99.90;;;;;;8389207;28;20239;-72
2021/11/15 20:33:57;;;;;;;;;;;7.00;99.90;;;;;;8391716;28;19974;-72
2021/11/15 20:37:59;;;;;;;;;;;7.00;99.90;;;;;;8391964;28;19954;-72
2021/11/15 20:42:01;;;;;;;;;;;7.00;99.90;;;;;;8388941;28;19920;-72
2021/11/15 20:46:20;;;;;;;;;;;7.00;99.90;;;;;;8392801;28;19925;-72
2021/11/15 20:50:21;;;;;;;;;;;7.00;99.90;;;;;;8398079;28;19924;-72
2021/11/15 20:54:23;;;;;;;;;;;7.00;99.90;;;;;;8398159;28;19925;-73
2021/11/15 20:58:25;;;;;;;;;;;7.10;99.90;;;;;;8399182;28;19924;-72
2021/11/15 21:02:27;;;;;;;;;;;7.00;99.90;;;;;;8401445;28;19927;-72
2021/11/15 21:06:29;;;;;;;;;;;7.10;99.90;;;;;;8389264;28;20272;-72
2021/11/15 21:10:31;;;;;;;;;;;7.00;99.90;;;;;;8387803;28;20379;-72
2021/11/15 21:14:33;;;;;;;;;;;7.00;99.90;;;;;;8391518;28;20295;-72
2021/11/15 21:18:56;;;;;;;;;;;7.00;99.90;;;;;;8408471;27;20387;-72
2021/11/15 21:23:04;;;;;;;;;;;7.10;99.90;;;;;;8404714;28;19985;-72
2021/11/15 21:27:06;;;;;;;;;;;7.10;99.90;;;;;;8389844;28;20303;-71
2021/11/15 21:31:08;;;;;;;;;;;7.10;99.90;;;;;;8385907;28;20371;-72
2021/11/15 21:35:10;;;;;;;;;;;7.00;99.90;;;;;;8390450;28;19967;-72
2021/11/15 21:39:13;;;;;;;;;;;7.00;99.90;;;;;;8391690;28;19924;-72
2021/11/15 21:43:15;;;;;;;;;;;6.90;99.90;;;;;;8387182;28;20317;-72
2021/11/15 21:47:17;;;;;;;;;;;6.90;99.90;;;;;;8389187;28;19927;-72
2021/11/15 21:51:19;;;;;;;;;;;6.90;99.90;;;;;;8387427;28;20540;-72
2021/11/15 21:55:21;;;;;;;;;;;6.80;99.90;;;;;;8389667;28;20391;-72
2021/11/15 21:59:23;;;;;;;;;;;6.90;99.90;;;;;;8389239;28;19946;-72
2021/11/15 22:03:26;;;;;;;;;;;6.90;99.90;;;;;;8410373;28;19928;-72
2021/11/15 22:07:27;;;;;;;;;;;6.90;99.90;;;;;;8423773;28;20367;-72
2021/11/15 22:11:29;;;;;;;;;;;6.90;99.90;;;;;;8419826;28;19920;-72
2021/11/15 22:15:31;;;;;;;;;;;6.90;99.90;;;;;;8422997;28;20528;-72
2021/11/15 22:19:33;;;;;;;;;;;6.90;99.90;;;;;;8426981;28;20412;-72
2021/11/15 22:23:48;;;;;;;;;;;6.90;99.90;;;;;;8420669;28;19919;-71
2021/11/15 22:27:50;;;;;;;;;;;6.90;99.90;;;;;;8436506;28;19930;-72
2021/11/15 22:31:52;;;;;;;;;;;6.90;99.90;;;;;;8422604;28;20482;-72
2021/11/15 22:35:55;;;;;;;;;;;6.90;99.90;;;;;;8416562;28;19946;-72
2021/11/15 22:39:57;;;;;;;;;;;6.80;99.90;;;;;;8424477;28;20592;-72
2021/11/15 22:43:59;;;;;;;;;;;6.90;99.90;;;;;;8426047;28;20207;-72
2021/11/15 22:48:01;;;;;;;;;;;6.90;99.90;;;;;;8428231;28;19920;-71
2021/11/15 22:52:03;;;;;;;;;;;6.90;99.90;;;;;;8425325;28;20391;-72
2021/11/15 22:56:05;;;;;;;;;;;6.90;99.90;;;;;;8424595;28;19920;-72
2021/11/15 23:00:17;;;;;;;;;;;6.90;99.90;;;;;;8412164;28;19920;-72
2021/11/15 23:04:18;;;;;;;;;;;6.90;99.90;;;;;;8429519;28;19931;-71
2021/11/15 23:08:20;;;;;;;;;;;6.90;99.90;;;;;;8424642;28;19924;-71
2021/11/15 23:12:22;;;;;;;;;;;6.90;99.90;;;;;;8422801;28;19939;-71
2021/11/15 23:16:23;;;;;;;;;;;7.00;99.90;;;;;;8428391;28;19924;-72
2021/11/15 23:20:26;;;;;;;;;;;7.00;99.90;;;;;;8427282;28;19931;-71
2021/11/15 23:24:28;;;;;;;;;;;7.00;99.90;;;;;;8426437;28;19924;-72
2021/11/15 23:28:33;;;;;;;;;;;7.00;99.90;;;;;;8426098;28;19920;-72
2021/11/15 23:32:34;;;;;;;;;;;7.00;99.90;;;;;;8417954;28;19924;-72
2021/11/15 23:36:39;;;;;;;;;;;6.90;99.90;;;;;;8423849;28;20341;-71
2021/11/15 23:40:41;;;;;;;;;;;6.90;99.90;;;;;;8420441;28;20291;-71
2021/11/15 23:44:43;;;;;;;;;;;6.90;99.90;;;;;;8420737;28;19920;-71
2021/11/15 23:48:44;;;;;;;;;;;6.90;99.90;;;;;;8423390;28;19938;-72
2021/11/15 23:52:46;;;;;;;;;;;6.90;99.90;;;;;;8417608;28;20248;-72
2021/11/15 23:56:48;;;;;;;;;;;6.90;99.90;;;;;;8423625;28;19927;-72
